sensor_id;sensor_type;location;lat;lon;timestamp;temperature;humidity
22503;DHT22;11418;48.118;9.992;2023-06-26T07:45:51;31.50;79.90
22503;DHT22;11418;48.118;9.992;2023-06-26T07:49:53;31.30;78.60
22503;DHT22;11418;48.118;9.992;2023-06-26T07:53:54;31.20;78.80
22503;DHT22;11418;48.118;9.992;2023-06-26T07:57:54;31.10;81.20
22503;DHT22;11418;48.118;9.992;2023-06-26T08:01:56;31.40;78.40
22503;DHT22;11418;48.118;9.992;2023-06-26T08:05:57;31.00;78.90
22503;DHT22;11418;48.118;9.992;2023-06-26T08:09:57;31.20;80.60
22503;DHT22;11418;48.118;9.992;2023-06-26T08:13:58;31.50;78.60
22503;DHT22;11418;48.118;9.992;2023-06-26T08:17:58;31.50;78.50
22503;DHT22;11418;48.118;9.992;2023-06-26T08:21:59;32.10;77.10
22503;DHT22;11418;48.118;9.992;2023-06-26T08:25:59;32.20;75.70
22503;DHT22;11418;48.118;9.992;2023-06-26T08:29:59;32.20;72.90
22503;DHT22;11418;48.118;9.992;2023-06-26T08:34:00;31.80;77.40
22503;DHT22;11418;48.118;9.992;2023-06-26T08:38:01;31.60;73.20
22503;DHT22;11418;48.118;9.992;2023-06-26T08:42:02;31.50;74.90
22503;DHT22;11418;48.118;9.992;2023-06-26T08:46:02;31.60;76.10
22503;DHT22;11418;48.118;9.992;2023-06-26T08:50:07;31.80;77.30
22503;DHT22;11418;48.118;9.992;2023-06-26T08:54:09;31.60;77.70
22503;DHT22;11418;48.118;9.992;2023-06-26T08:58:12;31.30;75.70
22503;DHT22;11418;48.118;9.992;2023-06-26T09:02:12;31.40;75.90
22503;DHT22;11418;48.118;9.992;2023-06-26T09:06:13;31.80;77.40
22503;DHT22;11418;48.118;9.992;2023-06-26T09:10:14;31.70;73.50
22503;DHT22;11418;48.118;9.992;2023-06-26T09:14:14;32.00;76.80
22503;DHT22;11418;48.118;9.992;2023-06-26T09:22:20;32.30;72.10
22503;DHT22;11418;48.118;9.992;2023-06-26T09:26:22;32.10;72.30
22503;DHT22;11418;48.118;9.992;2023-06-26T09:30:22;32.70;71.90
22503;DHT22;11418;48.118;9.992;2023-06-26T09:34:29;32.60;71.20
22503;DHT22;11418;48.118;9.992;2023-06-26T09:38:30;32.70;71.00
22503;DHT22;11418;48.118;9.992;2023-06-26T09:42:30;33.00;72.90
22503;DHT22;11418;48.118;9.992;2023-06-26T09:46:31;33.40;69.70
22503;DHT22;11418;48.118;9.992;2023-06-26T09:50:32;32.70;70.70
22503;DHT22;11418;48.118;9.992;2023-06-26T09:54:34;31.40;69.20
22503;DHT22;11418;48.118;9.992;2023-06-26T09:58:35;31.20;69.20
22503;DHT22;11418;48.118;9.992;2023-06-26T10:02:36;30.80;76.00
22503;DHT22;11418;48.118;9.992;2023-06-26T10:06:46;30.80;75.20
22503;DHT22;11418;48.118;9.992;2023-06-26T10:10:48;30.80;74.60
22503;DHT22;11418;48.118;9.992;2023-06-26T10:14:48;31.60;71.70
22503;DHT22;11418;48.118;9.992;2023-06-26T10:18:50;31.80;73.40
22503;DHT22;11418;48.118;9.992;2023-06-26T10:22:51;32.00;70.60
22503;DHT22;11418;48.118;9.992;2023-06-26T10:26:57;32.60;67.30
22503;DHT22;11418;48.118;9.992;2023-06-26T10:31:00;32.90;67.80
22503;DHT22;11418;48.118;9.992;2023-06-26T10:35:00;33.30;64.80
22503;DHT22;11418;48.118;9.992;2023-06-26T10:39:04;34.30;66.20
22503;DHT22;11418;48.118;9.992;2023-06-26T10:43:08;34.40;65.60
22503;DHT22;11418;48.118;9.992;2023-06-26T10:47:09;33.10;68.90
22503;DHT22;11418;48.118;9.992;2023-06-26T10:51:13;32.40;69.10
22503;DHT22;11418;48.118;9.992;2023-06-26T10:55:13;33.80;67.00
22503;DHT22;11418;48.118;9.992;2023-06-26T11:03:24;35.10;67.70
22503;DHT22;11418;48.118;9.992;2023-06-26T11:07:25;35.20;61.60
22503;DHT22;11418;48.118;9.992;2023-06-26T11:15:46;36.60;56.20
22503;DHT22;11418;48.118;9.992;2023-06-26T11:19:46;37.10;54.40
22503;DHT22;11418;48.118;9.992;2023-06-26T11:23:47;37.20;52.30
22503;DHT22;11418;48.118;9.992;2023-06-26T11:27:48;36.30;55.40
22503;DHT22;11418;48.118;9.992;2023-06-26T11:31:57;34.70;55.50
22503;DHT22;11418;48.118;9.992;2023-06-26T11:36:07;33.50;58.90
22503;DHT22;11418;48.118;9.992;2023-06-26T11:40:18;33.50;57.70
22503;DHT22;11418;48.118;9.992;2023-06-26T11:44:19;32.80;58.60
22503;DHT22;11418;48.118;9.992;2023-06-26T11:48:21;32.00;66.30
22503;DHT22;11418;48.118;9.992;2023-06-26T11:52:21;34.10;59.70
22503;DHT22;11418;48.118;9.992;2023-06-26T11:56:22;35.90;55.00
22503;DHT22;11418;48.118;9.992;2023-06-26T12:00:23;36.60;52.90
22503;DHT22;11418;48.118;9.992;2023-06-26T12:04:23;36.60;51.80
22503;DHT22;11418;48.118;9.992;2023-06-26T12:08:24;36.50;54.60
22503;DHT22;11418;48.118;9.992;2023-06-26T12:12:24;35.00;54.30
22503;DHT22;11418;48.118;9.992;2023-06-26T12:16:25;35.30;56.20
22503;DHT22;11418;48.118;9.992;2023-06-26T12:20:27;36.10;54.70
22503;DHT22;11418;48.118;9.992;2023-06-26T12:24:31;35.20;54.90
22503;DHT22;11418;48.118;9.992;2023-06-26T12:28:35;33.50;58.70
22503;DHT22;11418;48.118;9.992;2023-06-26T12:32:36;33.00;57.10
22503;DHT22;11418;48.118;9.992;2023-06-26T12:36:40;34.60;56.50
22503;DHT22;11418;48.118;9.992;2023-06-26T12:40:44;33.50;59.40
22503;DHT22;11418;48.118;9.992;2023-06-26T12:44:45;35.50;57.20
22503;DHT22;11418;48.118;9.992;2023-06-26T12:48:46;37.50;54.50
22503;DHT22;11418;48.118;9.992;2023-06-26T12:52:47;36.80;51.80
22503;DHT22;11418;48.118;9.992;2023-06-26T12:56:47;34.50;57.80
22503;DHT22;11418;48.118;9.992;2023-06-26T13:00:48;32.50;60.50
22503;DHT22;11418;48.118;9.992;2023-06-26T13:04:48;31.50;62.50
22503;DHT22;11418;48.118;9.992;2023-06-26T13:08:49;30.80;64.10
22503;DHT22;11418;48.118;9.992;2023-06-26T13:12:49;30.20;65.20
22503;DHT22;11418;48.118;9.992;2023-06-26T13:16:50;29.90;67.90
22503;DHT22;11418;48.118;9.992;2023-06-26T13:20:50;29.60;70.20
22503;DHT22;11418;48.118;9.992;2023-06-26T13:24:51;29.20;74.90
22503;DHT22;11418;48.118;9.992;2023-06-26T13:28:51;29.10;76.90
22503;DHT22;11418;48.118;9.992;2023-06-26T13:32:52;29.40;77.30
22503;DHT22;11418;48.118;9.992;2023-06-26T13:36:53;30.60;77.00
22503;DHT22;11418;48.118;9.992;2023-06-26T13:40:53;33.70;67.20
22503;DHT22;11418;48.118;9.992;2023-06-26T13:44:54;35.40;59.90
22503;DHT22;11418;48.118;9.992;2023-06-26T13:48:55;34.10;61.50
22503;DHT22;11418;48.118;9.992;2023-06-26T13:52:55;32.50;67.80
22503;DHT22;11418;48.118;9.992;2023-06-26T13:56:56;32.20;68.00
22503;DHT22;11418;48.118;9.992;2023-06-26T14:00:57;32.30;68.70
22503;DHT22;11418;48.118;9.992;2023-06-26T14:04:58;32.60;67.70
22503;DHT22;11418;48.118;9.992;2023-06-26T14:08:58;33.10;69.10
22503;DHT22;11418;48.118;9.992;2023-06-26T14:13:00;33.70;67.50
22503;DHT22;11418;48.118;9.992;2023-06-26T14:17:00;33.10;68.70
22503;DHT22;11418;48.118;9.992;2023-06-26T14:21:01;32.20;68.40
22503;DHT22;11418;48.118;9.992;2023-06-26T14:25:02;31.70;70.40
22503;DHT22;11418;48.118;9.992;2023-06-26T14:29:03;31.10;72.70
22503;DHT22;11418;48.118;9.992;2023-06-26T14:33:03;32.40;72.90
22503;DHT22;11418;48.118;9.992;2023-06-26T14:37:04;34.10;67.60
22503;DHT22;11418;48.118;9.992;2023-06-26T14:41:04;34.80;65.70
22503;DHT22;11418;48.118;9.992;2023-06-26T14:45:05;33.10;69.00
22503;DHT22;11418;48.118;9.992;2023-06-26T14:49:06;31.90;70.70
22503;DHT22;11418;48.118;9.992;2023-06-26T14:53:06;30.90;71.80
22503;DHT22;11418;48.118;9.992;2023-06-26T14:57:07;30.90;74.00
22503;DHT22;11418;48.118;9.992;2023-06-26T15:01:07;33.10;70.50
22503;DHT22;11418;48.118;9.992;2023-06-26T15:05:09;34.80;66.60
22503;DHT22;11418;48.118;9.992;2023-06-26T15:09:09;34.40;66.00
22503;DHT22;11418;48.118;9.992;2023-06-26T15:13:10;33.70;68.00
22503;DHT22;11418;48.118;9.992;2023-06-26T15:17:10;31.80;71.80
22503;DHT22;11418;48.118;9.992;2023-06-26T15:21:10;30.50;76.00
22503;DHT22;11418;48.118;9.992;2023-06-26T15:25:11;29.90;78.90
22503;DHT22;11418;48.118;9.992;2023-06-26T15:29:11;29.50;81.10
22503;DHT22;11418;48.118;9.992;2023-06-26T15:33:15;29.30;81.90
22503;DHT22;11418;48.118;9.992;2023-06-26T15:37:15;29.20;82.00
22503;DHT22;11418;48.118;9.992;2023-06-26T15:41:16;28.90;90.00
22503;DHT22;11418;48.118;9.992;2023-06-26T15:45:16;28.00;93.60
22503;DHT22;11418;48.118;9.992;2023-06-26T15:49:22;28.30;91.30
22503;DHT22;11418;48.118;9.992;2023-06-26T15:53:36;28.50;91.30
22503;DHT22;11418;48.118;9.992;2023-06-26T15:57:37;27.40;95.00
22503;DHT22;11418;48.118;9.992;2023-06-26T16:01:37;26.80;97.40
22503;DHT22;11418;48.118;9.992;2023-06-26T16:05:38;26.40;99.90
22503;DHT22;11418;48.118;9.992;2023-06-26T16:09:38;27.00;99.60
22503;DHT22;11418;48.118;9.992;2023-06-26T16:13:39;27.40;99.50
22503;DHT22;11418;48.118;9.992;2023-06-26T16:17:39;27.30;99.90
22503;DHT22;11418;48.118;9.992;2023-06-26T16:21:40;27.40;99.90
22503;DHT22;11418;48.118;9.992;2023-06-26T16:25:40;27.60;97.80
22503;DHT22;11418;48.118;9.992;2023-06-26T16:29:41;27.90;99.90
22503;DHT22;11418;48.118;9.992;2023-06-26T16:33:43;28.00;99.90
22503;DHT22;11418;48.118;9.992;2023-06-26T16:37:43;28.00;99.60
22503;DHT22;11418;48.118;9.992;2023-06-26T16:41:44;28.30;98.00
22503;DHT22;11418;48.118;9.992;2023-06-26T16:45:44;29.00;96.50
22503;DHT22;11418;48.118;9.992;2023-06-26T16:49:45;29.40;95.20
22503;DHT22;11418;48.118;9.992;2023-06-26T16:53:45;29.20;94.90
22503;DHT22;11418;48.118;9.992;2023-06-26T16:57:46;29.10;95.60
22503;DHT22;11418;48.118;9.992;2023-06-26T17:01:46;28.60;95.00
22503;DHT22;11418;48.118;9.992;2023-06-26T17:05:47;28.10;97.60
22503;DHT22;11418;48.118;9.992;2023-06-26T17:09:47;27.80;97.30
22503;DHT22;11418;48.118;9.992;2023-06-26T17:13:48;27.90;98.00
22503;DHT22;11418;48.118;9.992;2023-06-26T17:17:48;27.90;98.20
22503;DHT22;11418;48.118;9.992;2023-06-26T17:21:49;28.50;99.00
22503;DHT22;11418;48.118;9.992;2023-06-26T17:25:49;28.80;96.40
22503;DHT22;11418;48.118;9.992;2023-06-26T17:29:50;28.40;95.80
22503;DHT22;11418;48.118;9.992;2023-06-26T17:33:50;27.70;95.40
22503;DHT22;11418;48.118;9.992;2023-06-26T17:37:51;27.20;96.80
22503;DHT22;11418;48.118;9.992;2023-06-26T17:41:52;26.90;95.20
22503;DHT22;11418;48.118;9.992;2023-06-26T17:45:52;26.50;95.00
22503;DHT22;11418;48.118;9.992;2023-06-26T17:49:53;26.50;95.90
22503;DHT22;11418;48.118;9.992;2023-06-26T17:53:54;26.10;95.50
22503;DHT22;11418;48.118;9.992;2023-06-26T17:57:54;25.40;96.60
22503;DHT22;11418;48.118;9.992;2023-06-26T18:01:55;25.60;97.10
22503;DHT22;11418;48.118;9.992;2023-06-26T18:05:58;25.60;96.20
22503;DHT22;11418;48.118;9.992;2023-06-26T18:09:59;25.40;96.10
22503;DHT22;11418;48.118;9.992;2023-06-26T18:14:00;25.50;96.00
22503;DHT22;11418;48.118;9.992;2023-06-26T18:18:00;25.10;95.60
22503;DHT22;11418;48.118;9.992;2023-06-26T18:22:01;24.90;95.80
22503;DHT22;11418;48.118;9.992;2023-06-26T18:26:01;24.80;96.10
22503;DHT22;11418;48.118;9.992;2023-06-26T18:30:02;24.50;96.30
22503;DHT22;11418;48.118;9.992;2023-06-26T18:34:03;24.10;97.30
22503;DHT22;11418;48.118;9.992;2023-06-26T18:38:04;24.00;97.10
22503;DHT22;11418;48.118;9.992;2023-06-26T18:42:06;24.00;97.80
22503;DHT22;11418;48.118;9.992;2023-06-26T18:46:07;23.40;98.10
22503;DHT22;11418;48.118;9.992;2023-06-26T18:50:07;23.40;98.10
22503;DHT22;11418;48.118;9.992;2023-06-26T18:54:08;23.10;99.20
22503;DHT22;11418;48.118;9.992;2023-06-26T18:58:08;23.00;98.10
22503;DHT22;11418;48.118;9.992;2023-06-26T19:02:10;22.90;98.30
22503;DHT22;11418;48.118;9.992;2023-06-26T19:06:10;22.60;98.40
22503;DHT22;11418;48.118;9.992;2023-06-26T19:10:11;22.60;98.40
22503;DHT22;11418;48.118;9.992;2023-06-26T19:14:15;22.90;98.70
22503;DHT22;11418;48.118;9.992;2023-06-26T19:18:16;22.10;98.40
22503;DHT22;11418;48.118;9.992;2023-06-26T19:22:16;22.20;98.50
22503;DHT22;11418;48.118;9.992;2023-06-26T19:26:17;22.20;98.60
22503;DHT22;11418;48.118;9.992;2023-06-26T19:30:17;21.80;98.70
22503;DHT22;11418;48.118;9.992;2023-06-26T19:34:18;21.50;98.80
22503;DHT22;11418;48.118;9.992;2023-06-26T19:38:18;21.80;98.80
22503;DHT22;11418;48.118;9.992;2023-06-26T19:42:19;21.60;99.50
22503;DHT22;11418;48.118;9.992;2023-06-26T19:46:20;21.20;98.70
22503;DHT22;11418;48.118;9.992;2023-06-26T19:50:20;21.70;98.80
22503;DHT22;11418;48.118;9.992;2023-06-26T19:54:20;21.20;98.80
22503;DHT22;11418;48.118;9.992;2023-06-26T19:58:21;21.00;98.40
22503;DHT22;11418;48.118;9.992;2023-06-26T20:02:21;21.30;98.80
22503;DHT22;11418;48.118;9.992;2023-06-26T20:06:22;20.60;99.30
22503;DHT22;11418;48.118;9.992;2023-06-26T20:10:23;20.20;99.60
22503;DHT22;11418;48.118;9.992;2023-06-26T20:14:26;20.30;99.90
22503;DHT22;11418;48.118;9.992;2023-06-26T20:18:40;20.20;99.90
22503;DHT22;11418;48.118;9.992;2023-06-26T20:22:43;19.30;99.90
22503;DHT22;11418;48.118;9.992;2023-06-26T20:26:44;19.20;99.90
22503;DHT22;11418;48.118;9.992;2023-06-26T20:30:44;20.00;99.90
22503;DHT22;11418;48.118;9.992;2023-06-26T20:34:49;19.70;99.90
22503;DHT22;11418;48.118;9.992;2023-06-26T20:42:52;19.20;99.90
22503;DHT22;11418;48.118;9.992;2023-06-26T20:46:52;19.10;99.90
22503;DHT22;11418;48.118;9.992;2023-06-26T20:55:40;18.70;99.90
22503;DHT22;11418;48.118;9.992;2023-06-26T20:59:40;18.90;99.90
22503;DHT22;11418;48.118;9.992;2023-06-26T21:03:41;18.80;99.90
22503;DHT22;11418;48.118;9.992;2023-06-26T21:07:41;18.50;99.90
22503;DHT22;11418;48.118;9.992;2023-06-26T21:11:42;18.60;99.90
22503;DHT22;11418;48.118;9.992;2023-06-26T21:15:42;18.60;99.90
22503;DHT22;11418;48.118;9.992;2023-06-26T21:19:44;18.30;99.90
22503;DHT22;11418;48.118;9.992;2023-06-26T21:23:45;18.20;99.90
22503;DHT22;11418;48.118;9.992;2023-06-26T21:27:45;18.10;99.90
22503;DHT22;11418;48.118;9.992;2023-06-26T21:31:46;18.30;99.90
22503;DHT22;11418;48.118;9.992;2023-06-26T21:35:46;18.00;99.90
22503;DHT22;11418;48.118;9.992;2023-06-26T21:39:47;18.40;99.90
22503;DHT22;11418;48.118;9.992;2023-06-26T21:43:47;18.10;99.90
22503;DHT22;11418;48.118;9.992;2023-06-26T21:47:48;17.70;99.90
22503;DHT22;11418;48.118;9.992;2023-06-26T21:51:48;18.20;99.90
22503;DHT22;11418;48.118;9.992;2023-06-26T21:55:49;18.30;99.90
22503;DHT22;11418;48.118;9.992;2023-06-26T21:59:49;17.80;99.90
22503;DHT22;11418;48.118;9.992;2023-06-26T22:03:49;18.10;99.90
22503;DHT22;11418;48.118;9.992;2023-06-26T22:07:50;17.40;99.90
22503;DHT22;11418;48.118;9.992;2023-06-26T22:11:50;17.00;99.90
22503;DHT22;11418;48.118;9.992;2023-06-26T22:15:51;16.80;99.90
22503;DHT22;11418;48.118;9.992;2023-06-26T22:19:51;17.10;99.90
22503;DHT22;11418;48.118;9.992;2023-06-26T22:23:52;16.40;99.90
22503;DHT22;11418;48.118;9.992;2023-06-26T22:27:53;16.80;99.90
22503;DHT22;11418;48.118;9.992;2023-06-26T22:31:54;16.50;99.90
22503;DHT22;11418;48.118;9.992;2023-06-26T22:35:54;16.90;99.90
22503;DHT22;11418;48.118;9.992;2023-06-26T22:39:55;16.60;99.90
22503;DHT22;11418;48.118;9.992;2023-06-26T22:43:55;16.50;99.90
22503;DHT22;11418;48.118;9.992;2023-06-26T22:47:56;16.40;99.90
22503;DHT22;11418;48.118;9.992;2023-06-26T22:51:56;17.60;99.90
22503;DHT22;11418;48.118;9.992;2023-06-26T22:55:57;16.70;99.90
22503;DHT22;11418;48.118;9.992;2023-06-26T22:59:57;17.20;99.90
22503;DHT22;11418;48.118;9.992;2023-06-26T23:03:58;16.00;99.90
22503;DHT22;11418;48.118;9.992;2023-06-26T23:07:58;17.10;99.90
22503;DHT22;11418;48.118;9.992;2023-06-26T23:12:02;16.60;99.90
22503;DHT22;11418;48.118;9.992;2023-06-26T23:16:02;16.40;99.90
22503;DHT22;11418;48.118;9.992;2023-06-26T23:20:03;16.20;99.90
22503;DHT22;11418;48.118;9.992;2023-06-26T23:24:05;15.80;99.90
22503;DHT22;11418;48.118;9.992;2023-06-26T23:28:07;15.70;99.90
22503;DHT22;11418;48.118;9.992;2023-06-26T23:32:07;15.60;99.90
22503;DHT22;11418;48.118;9.992;2023-06-26T23:36:08;15.60;99.90
22503;DHT22;11418;48.118;9.992;2023-06-26T23:40:09;15.40;99.90
22503;DHT22;11418;48.118;9.992;2023-06-26T23:44:10;15.50;99.90
22503;DHT22;11418;48.118;9.992;2023-06-26T23:48:12;15.50;99.90
22503;DHT22;11418;48.118;9.992;2023-06-26T23:52:13;15.10;99.90
22503;DHT22;11418;48.118;9.992;2023-06-26T23:56:13;15.80;99.90
